createdAt,value
2023-02-25T00:01:39.388Z,6.85
2023-02-25T00:04:06.472Z,6.87
2023-02-25T00:06:33.467Z,6.88
2023-02-25T00:09:01.250Z,6.91
2023-02-25T00:11:28.551Z,6.94
2023-02-25T00:13:55.599Z,6.96
2023-02-25T00:16:24.976Z,6.98
2023-02-25T00:18:56.558Z,7.00
2023-02-25T00:21:24.597Z,7.02
2023-02-25T00:23:53.858Z,7.02
2023-02-25T00:26:22.634Z,7.00
2023-02-25T00:28:50.525Z,6.95
2023-02-25T00:31:23.551Z,6.87
2023-02-25T00:33:51.904Z,6.80
2023-02-25T00:36:21.404Z,6.78
2023-02-25T00:38:56.260Z,6.78
2023-02-25T00:41:27.206Z,6.71
2023-02-25T00:43:57.232Z,6.78
2023-02-25T00:46:25.514Z,6.81
2023-02-25T00:48:53.102Z,6.79
2023-02-25T00:51:25.921Z,6.69
2023-02-25T00:53:54.512Z,6.69
2023-02-25T00:56:21.931Z,6.59
2023-02-25T00:58:50.547Z,6.57
2023-02-25T01:01:25.863Z,6.51
2023-02-25T01:03:54.104Z,6.48
2023-02-25T01:06:21.555Z,6.46
2023-02-25T01:08:49.434Z,6.50
2023-02-25T01:11:21.338Z,6.49
2023-02-25T01:13:49.950Z,6.55
2023-02-25T01:16:20.990Z,6.60
2023-02-25T01:18:51.819Z,6.60
2023-02-25T01:21:30.530Z,6.60
2023-02-25T01:24:12.489Z,6.57
2023-02-25T01:26:44.794Z,6.59
2023-02-25T01:29:18.841Z,6.54
2023-02-25T01:31:46.649Z,6.57
2023-02-25T01:34:17.359Z,6.62
2023-02-25T01:36:44.840Z,6.69
2023-02-25T01:39:13.251Z,6.75
2023-02-25T01:41:40.508Z,6.82
2023-02-25T01:44:14.480Z,6.87
2023-02-25T01:46:43.711Z,6.96
2023-02-25T01:49:41.785Z,7.00
2023-02-25T01:52:13.895Z,7.10
2023-02-25T01:54:42.702Z,7.19
2023-02-25T01:57:11.874Z,7.20
2023-02-25T01:59:41.708Z,7.12
2023-02-25T02:02:10.376Z,7.09
2023-02-25T02:04:38.424Z,7.03
2023-02-25T02:07:07.264Z,6.98
2023-02-25T02:09:35.095Z,6.86
2023-02-25T02:12:04.794Z,6.81
2023-02-25T02:14:38.164Z,6.81
2023-02-25T02:17:32.654Z,6.76
2023-02-25T02:20:13.944Z,6.78
2023-02-25T02:23:07.206Z,6.83
2023-02-25T02:25:53.537Z,6.86
2023-02-25T02:28:47.474Z,6.87
2023-02-25T02:31:46.486Z,6.87
2023-02-25T02:34:26.716Z,6.90
2023-02-25T02:37:19.103Z,6.92
2023-02-25T02:39:58.426Z,6.92
2023-02-25T02:42:56.141Z,6.92
2023-02-25T02:45:25.699Z,6.90
2023-02-25T02:48:19.912Z,6.94
2023-02-25T02:50:52.261Z,6.97
2023-02-25T02:53:28.499Z,6.92
2023-02-25T02:55:59.986Z,7.03
2023-02-25T02:58:38.960Z,7.10
2023-02-25T03:01:11.929Z,7.13
2023-02-25T03:03:44.419Z,7.20
2023-02-25T03:06:16.486Z,7.28
2023-02-25T03:09:06.210Z,7.32
2023-02-25T03:11:35.006Z,7.35
2023-02-25T03:14:02.531Z,7.37
2023-02-25T03:16:37.378Z,7.34
2023-02-25T03:19:21.501Z,7.37
2023-02-25T03:21:54.938Z,7.33
2023-02-25T03:24:35.862Z,6.95
2023-02-25T03:27:23.232Z,7.15
2023-02-25T03:29:53.004Z,7.29
2023-02-25T03:32:21.013Z,7.30
2023-02-25T03:34:50.405Z,7.34
2023-02-25T03:37:31.463Z,7.34
2023-02-25T03:40:08.783Z,7.30
2023-02-25T03:42:36.645Z,7.47
2023-02-25T03:45:07.968Z,7.58
2023-02-25T03:47:38.547Z,7.66
2023-02-25T03:50:08.705Z,7.66
2023-02-25T03:52:39.375Z,7.72
2023-02-25T03:55:15.964Z,7.88
2023-02-25T03:57:46.016Z,8.01
2023-02-25T04:00:41.321Z,8.17
2023-02-25T04:03:08.450Z,8.18
2023-02-25T04:05:36.376Z,8.36
2023-02-25T04:08:03.999Z,8.47
2023-02-25T04:10:34.481Z,8.65
2023-02-25T04:13:01.503Z,8.77
2023-02-25T04:15:29.601Z,8.88
2023-02-25T04:17:56.608Z,9.03
2023-02-25T04:20:23.599Z,9.01
2023-02-25T04:22:50.488Z,9.05
2023-02-25T04:25:17.512Z,8.91
2023-02-25T04:27:44.441Z,9.15
2023-02-25T04:30:12.182Z,9.08
2023-02-25T04:32:39.204Z,9.26
2023-02-25T04:35:10.630Z,9.33
2023-02-25T04:37:38.813Z,9.11
2023-02-25T04:40:12.448Z,9.26
2023-02-25T04:42:40.120Z,9.35
2023-02-25T04:45:09.738Z,9.38
2023-02-25T04:47:37.071Z,9.36
2023-02-25T04:50:05.452Z,9.32
2023-02-25T04:52:32.357Z,9.47
2023-02-25T04:54:59.314Z,9.58
2023-02-25T04:57:26.250Z,9.63
2023-02-25T04:59:53.280Z,9.63
2023-02-25T05:02:20.521Z,9.68
2023-02-25T05:04:49.158Z,9.68
2023-02-25T05:07:16.262Z,9.74
2023-02-25T05:09:43.183Z,9.72
2023-02-25T05:12:10.445Z,9.67
2023-02-25T05:14:38.113Z,9.71
2023-02-25T05:17:05.133Z,9.47
2023-02-25T05:19:32.617Z,9.19
2023-02-25T05:21:59.598Z,9.31
2023-02-25T05:24:26.728Z,9.24
2023-02-25T05:26:54.019Z,8.99
2023-02-25T05:29:21.129Z,8.86
2023-02-25T05:31:49.798Z,8.82
2023-02-25T05:34:17.207Z,8.73
2023-02-25T05:36:44.240Z,8.74
2023-02-25T05:39:13.691Z,8.87
2023-02-25T05:41:41.044Z,8.83
2023-02-25T05:44:08.355Z,8.80
2023-02-25T05:46:35.629Z,8.63
2023-02-25T05:49:02.699Z,8.57
2023-02-25T05:51:29.957Z,8.49
2023-02-25T05:53:57.606Z,8.57
2023-02-25T05:56:26.108Z,8.47
2023-02-25T05:58:54.326Z,8.64
2023-02-25T06:01:24.498Z,8.58
2023-02-25T06:03:52.554Z,8.62
2023-02-25T06:06:23.822Z,8.55
2023-02-25T06:08:51.917Z,8.68
2023-02-25T06:11:28.269Z,8.67
2023-02-25T06:13:56.240Z,8.79
2023-02-25T06:16:26.079Z,8.64
2023-02-25T06:18:53.474Z,8.57
2023-02-25T06:21:20.508Z,8.55
2023-02-25T06:23:50.547Z,8.57
2023-02-25T06:26:18.188Z,8.42
2023-02-25T06:28:45.415Z,8.24
2023-02-25T06:31:15.121Z,8.10
2023-02-25T06:33:42.630Z,8.33
2023-02-25T06:36:10.705Z,8.38
2023-02-25T06:38:37.829Z,8.37
2023-02-25T06:41:15.660Z,8.32
2023-02-25T06:43:42.815Z,8.36
2023-02-25T06:46:12.438Z,8.32
2023-02-25T06:48:39.684Z,8.29
2023-02-25T06:51:10.761Z,8.26
2023-02-25T06:53:42.756Z,8.31
2023-02-25T06:56:12.983Z,8.38
2023-02-25T06:58:40.450Z,8.44
2023-02-25T07:01:09.392Z,8.35
2023-02-25T07:03:36.783Z,8.35
2023-02-25T07:06:04.196Z,8.46
2023-02-25T07:08:31.637Z,8.63
2023-02-25T07:11:29.847Z,8.61
2023-02-25T07:13:57.838Z,8.30
2023-02-25T07:16:25.686Z,8.39
2023-02-25T07:18:52.973Z,8.71
2023-02-25T07:21:20.139Z,8.33
2023-02-25T07:23:47.166Z,8.43
2023-02-25T07:26:15.080Z,8.43
2023-02-25T07:28:42.956Z,8.54
2023-02-25T07:31:17.486Z,8.56
2023-02-25T07:33:44.902Z,8.56
2023-02-25T07:36:12.688Z,8.65
2023-02-25T07:38:40.233Z,8.52
2023-02-25T07:41:09.024Z,8.47
2023-02-25T07:43:36.042Z,8.51
2023-02-25T07:46:04.160Z,8.81
2023-02-25T07:48:31.996Z,8.82
2023-02-25T07:51:13.556Z,8.57
2023-02-25T07:53:40.539Z,8.69
2023-02-25T07:56:09.220Z,8.80
2023-02-25T07:58:36.787Z,8.66
2023-02-25T08:01:21.028Z,8.73
2023-02-25T08:03:49.359Z,8.79
2023-02-25T08:06:16.321Z,8.93
2023-02-25T08:08:43.476Z,9.05
2023-02-25T08:11:12.437Z,9.03
2023-02-25T08:13:39.479Z,9.09
2023-02-25T08:16:08.726Z,9.31
2023-02-25T08:18:36.979Z,9.26
2023-02-25T08:21:04.796Z,9.21
2023-02-25T08:23:31.939Z,9.12
2023-02-25T08:25:59.586Z,9.12
2023-02-25T08:28:31.805Z,9.20
2023-02-25T08:31:00.654Z,9.32
2023-02-25T08:33:30.022Z,9.36
2023-02-25T08:36:05.592Z,9.55
2023-02-25T08:38:32.590Z,9.52
2023-02-25T08:41:00.953Z,9.43
2023-02-25T08:43:28.001Z,9.44
2023-02-25T08:45:56.839Z,9.48
2023-02-25T08:48:24.369Z,9.50
2023-02-25T08:50:51.673Z,9.53
2023-02-25T08:53:19.423Z,9.66
2023-02-25T08:55:47.559Z,9.51
2023-02-25T08:58:14.655Z,9.59
2023-02-25T09:00:41.733Z,9.84
2023-02-25T09:03:09.042Z,9.74
2023-02-25T09:05:38.130Z,9.78
2023-02-25T09:08:05.246Z,9.81
2023-02-25T09:10:48.162Z,9.91
2023-02-25T09:13:17.507Z,10.14
2023-02-25T09:15:44.534Z,10.10
2023-02-25T09:18:12.021Z,10.29
2023-02-25T09:20:39.185Z,10.46
2023-02-25T09:23:06.147Z,10.50
2023-02-25T09:25:33.206Z,10.54
2023-02-25T09:28:00.147Z,10.59
2023-02-25T09:30:27.088Z,10.88
2023-02-25T09:32:54.182Z,11.17
2023-02-25T09:35:21.214Z,11.42
2023-02-25T09:37:48.156Z,11.58
2023-02-25T09:40:19.303Z,11.82
2023-02-25T09:42:53.767Z,12.07
2023-02-25T09:45:24.923Z,12.19
2023-02-25T09:48:00.246Z,12.31
2023-02-25T09:50:33.174Z,12.31
2023-02-25T09:53:32.192Z,12.50
2023-02-25T09:55:59.492Z,12.88
2023-02-25T09:58:46.214Z,13.02
2023-02-25T10:01:34.486Z,13.14
2023-02-25T10:04:17.140Z,13.39
2023-02-25T10:06:48.462Z,13.58
2023-02-25T10:09:25.146Z,13.53
2023-02-25T10:12:01.152Z,13.87
2023-02-25T10:15:12.992Z,13.97
2023-02-25T10:18:11.658Z,14.12
2023-02-25T10:21:25.444Z,14.34
2023-02-25T10:24:09.151Z,14.43
2023-02-25T10:26:45.102Z,14.41
2023-02-25T10:29:30.317Z,14.64
2023-02-25T10:32:00.247Z,14.86
2023-02-25T10:34:29.710Z,15.20
2023-02-25T10:36:59.423Z,15.28
2023-02-25T10:39:28.809Z,15.46
2023-02-25T10:41:56.505Z,15.53
2023-02-25T10:44:23.481Z,15.60
2023-02-25T10:46:55.860Z,15.79
2023-02-25T10:49:28.557Z,15.96
2023-02-25T10:52:00.036Z,16.16
2023-02-25T10:54:28.006Z,16.13
2023-02-25T10:56:55.766Z,16.34
2023-02-25T10:59:35.259Z,16.38
2023-02-25T11:02:02.970Z,16.52
2023-02-25T11:04:36.542Z,16.63
2023-02-25T11:07:34.659Z,16.44
2023-02-25T11:10:18.439Z,16.64
2023-02-25T11:12:47.402Z,16.52
2023-02-25T11:15:44.865Z,16.41
2023-02-25T11:18:29.505Z,16.56
2023-02-25T11:20:59.482Z,16.79
2023-02-25T11:23:35.795Z,16.53
2023-02-25T11:26:04.131Z,16.51
2023-02-25T11:28:41.582Z,16.58
2023-02-25T11:31:22.337Z,16.82
2023-02-25T11:33:57.631Z,16.73
2023-02-25T11:36:29.899Z,16.89
2023-02-25T11:39:15.685Z,16.85
2023-02-25T11:41:47.837Z,16.99
2023-02-25T11:44:27.207Z,17.00
2023-02-25T11:47:07.067Z,16.84
2023-02-25T11:49:49.619Z,16.92
2023-02-25T11:52:34.107Z,16.72
2023-02-25T11:55:12.855Z,16.79
2023-02-25T11:57:59.810Z,17.02
2023-02-25T12:00:36.322Z,17.14
2023-02-25T12:13:53.643Z,17.23
2023-02-25T12:16:32.855Z,17.28
2023-02-25T12:19:05.577Z,17.38
2023-02-25T12:21:38.296Z,17.44
2023-02-25T12:24:37.694Z,17.55
2023-02-25T12:27:24.309Z,17.81
2023-02-25T12:30:28.209Z,18.09
2023-02-25T12:33:03.790Z,18.41
2023-02-25T12:36:09.836Z,18.66
2023-02-25T12:38:51.884Z,18.94
2023-02-25T12:41:33.810Z,19.14
2023-02-25T12:44:06.719Z,19.28
2023-02-25T12:46:42.511Z,19.28
2023-02-25T12:49:12.574Z,19.49
2023-02-25T12:52:03.865Z,19.54
2023-02-25T12:54:39.166Z,19.44
2023-02-25T12:57:39.968Z,19.16
2023-02-25T13:00:43.321Z,19.05
2023-02-25T13:03:33.314Z,18.85
2023-02-25T13:06:11.829Z,18.93
2023-02-25T13:09:19.589Z,19.14
2023-02-25T13:12:17.246Z,19.52
2023-02-25T13:15:08.826Z,19.63
2023-02-25T13:18:07.326Z,19.68
2023-02-25T13:20:45.501Z,19.46
2023-02-25T13:23:31.174Z,19.27
2023-02-25T13:26:00.938Z,19.32
2023-02-25T13:28:52.748Z,19.34
2023-02-25T13:31:38.193Z,19.19
2023-02-25T13:34:23.527Z,19.56
2023-02-25T13:37:30.302Z,19.76
2023-02-25T13:40:31.097Z,20.45
2023-02-25T13:43:01.070Z,20.56
2023-02-25T13:45:38.884Z,20.53
2023-02-25T13:48:17.200Z,19.77
2023-02-25T13:51:15.946Z,19.40
2023-02-25T13:54:24.885Z,19.13
2023-02-25T13:57:16.490Z,17.98
2023-02-25T14:00:03.974Z,17.48
2023-02-25T14:03:15.717Z,17.52
2023-02-25T14:05:57.535Z,17.42
2023-02-25T14:08:40.598Z,17.81
2023-02-25T14:11:23.298Z,18.01
2023-02-25T14:13:56.076Z,17.82
2023-02-25T14:17:10.428Z,17.46
2023-02-25T14:20:21.872Z,16.77
2023-02-25T14:23:11.919Z,16.15
2023-02-25T14:25:58.442Z,15.40
2023-02-25T14:28:57.152Z,14.98
2023-02-25T14:31:47.170Z,14.98
2023-02-25T14:34:23.239Z,14.69
2023-02-25T14:37:02.258Z,14.57
2023-02-25T14:40:19.936Z,14.24
2023-02-25T14:42:55.796Z,13.71
2023-02-25T14:45:28.956Z,13.56
2023-02-25T14:48:10.897Z,13.50
2023-02-25T14:51:07.894Z,13.31
2023-02-25T14:54:08.624Z,12.97
2023-02-25T14:56:47.852Z,12.92
2023-02-25T14:59:40.573Z,12.63
2023-02-25T15:02:16.388Z,12.74
2023-02-25T15:05:20.354Z,12.46
2023-02-25T15:08:19.054Z,12.15
2023-02-25T15:11:15.522Z,12.14
2023-02-25T15:14:20.014Z,11.98
2023-02-25T15:17:18.072Z,12.11
2023-02-25T15:20:00.473Z,11.88
2023-02-25T15:22:33.054Z,11.69
2023-02-25T15:25:21.645Z,11.77
2023-02-25T15:28:00.342Z,11.55
2023-02-25T15:30:29.025Z,11.44
2023-02-25T15:33:14.156Z,11.46
2023-02-25T15:35:41.163Z,11.52
2023-02-25T15:38:38.625Z,11.25
2023-02-25T15:41:34.729Z,11.16
2023-02-25T15:44:22.787Z,11.06
2023-02-25T15:46:50.409Z,11.06
2023-02-25T15:49:17.236Z,11.04
2023-02-25T15:51:59.376Z,10.77
2023-02-25T15:54:32.157Z,10.89
2023-02-25T15:57:01.518Z,10.90
2023-02-25T15:59:47.217Z,10.60
2023-02-25T16:02:29.244Z,10.57
2023-02-25T16:05:05.944Z,10.44
2023-02-25T16:07:37.228Z,10.34
2023-02-25T16:10:09.702Z,10.44
2023-02-25T16:12:38.885Z,10.34
2023-02-25T16:15:06.565Z,10.16
2023-02-25T16:17:35.961Z,10.07
2023-02-25T16:20:28.177Z,9.96
2023-02-25T16:22:59.692Z,10.06
2023-02-25T16:26:16.242Z,9.98
2023-02-25T16:28:59.195Z,9.92
2023-02-25T16:31:29.557Z,10.03
2023-02-25T16:34:19.395Z,9.99
2023-02-25T16:36:51.984Z,9.94
2023-02-25T16:39:23.763Z,9.95
2023-02-25T16:41:55.745Z,9.95
2023-02-25T16:44:31.718Z,9.93
2023-02-25T16:46:58.939Z,9.92
2023-02-25T16:49:47.508Z,9.93
2023-02-25T16:52:37.906Z,9.90
2023-02-25T16:55:12.990Z,9.87
2023-02-25T16:57:40.032Z,9.89
2023-02-25T17:00:15.667Z,9.86
2023-02-25T17:02:53.816Z,9.80
2023-02-25T17:05:25.800Z,9.74
2023-02-25T17:07:59.807Z,9.65
2023-02-25T17:10:53.343Z,9.52
2023-02-25T17:13:26.157Z,9.28
2023-02-25T17:15:53.433Z,9.35
2023-02-25T17:18:24.678Z,9.14
2023-02-25T17:21:00.127Z,9.06
2023-02-25T17:23:27.226Z,9.08
2023-02-25T17:25:55.075Z,8.94
2023-02-25T17:28:25.906Z,8.71
2023-02-25T17:30:53.364Z,8.80
2023-02-25T17:33:27.089Z,8.86
2023-02-25T17:36:01.990Z,8.81
2023-02-25T17:38:29.550Z,8.89
2023-02-25T17:40:56.958Z,8.81
2023-02-25T17:43:38.223Z,8.78
2023-02-25T17:46:24.207Z,8.69
2023-02-25T17:48:55.000Z,8.85
2023-02-25T17:51:34.694Z,8.78
2023-02-25T17:54:22.579Z,8.82
2023-02-25T17:57:01.018Z,8.62
2023-02-25T17:59:28.153Z,8.81
2023-02-25T18:02:00.154Z,8.86
2023-02-25T18:04:40.394Z,8.90
2023-02-25T18:07:19.459Z,8.84
2023-02-25T18:09:46.730Z,8.79
2023-02-25T18:12:26.845Z,8.86
2023-02-25T18:15:00.614Z,8.98
2023-02-25T18:17:31.957Z,8.99
2023-02-25T18:20:08.837Z,8.98
2023-02-25T18:22:45.733Z,8.89
2023-02-25T18:25:36.211Z,8.88
2023-02-25T18:28:05.982Z,8.76
2023-02-25T18:30:33.524Z,8.74
2023-02-25T18:33:00.559Z,8.81
2023-02-25T18:35:29.842Z,8.69
2023-02-25T18:37:58.102Z,8.74
2023-02-25T18:40:30.721Z,8.73
2023-02-25T18:42:59.191Z,8.78
2023-02-25T18:45:27.879Z,8.80
2023-02-25T18:47:57.076Z,8.88
2023-02-25T18:50:24.881Z,8.93
2023-02-25T18:52:51.899Z,8.94
2023-02-25T18:55:23.613Z,8.98
2023-02-25T18:57:50.905Z,9.02
2023-02-25T19:00:20.153Z,9.09
2023-02-25T19:03:05.098Z,9.13
2023-02-25T19:05:32.220Z,9.04
2023-02-25T19:07:59.797Z,8.98
2023-02-25T19:10:30.637Z,8.94
2023-02-25T19:13:06.856Z,8.90
2023-02-25T19:15:34.316Z,8.86
2023-02-25T19:18:01.373Z,8.87
2023-02-25T19:20:28.489Z,8.90
2023-02-25T19:22:55.441Z,8.78
2023-02-25T19:25:26.339Z,8.76
2023-02-25T19:27:54.585Z,8.79
2023-02-25T19:30:25.091Z,8.71
2023-02-25T19:32:52.671Z,8.69
2023-02-25T19:35:19.791Z,8.59
2023-02-25T19:37:46.905Z,8.47
2023-02-25T19:40:16.688Z,8.32
2023-02-25T19:42:44.939Z,8.35
2023-02-25T19:45:13.975Z,8.18
2023-02-25T19:47:41.258Z,8.07
2023-02-25T19:50:08.963Z,7.94
2023-02-25T19:52:36.450Z,8.01
2023-02-25T19:55:05.124Z,7.98
2023-02-25T19:57:32.771Z,8.02
2023-02-25T19:59:59.871Z,7.99
2023-02-25T20:02:26.856Z,7.94
2023-02-25T20:04:53.836Z,7.91
2023-02-25T20:07:20.811Z,7.91
2023-02-25T20:09:47.851Z,7.85
2023-02-25T20:12:15.005Z,7.86
2023-02-25T20:14:42.032Z,7.85
2023-02-25T20:17:09.266Z,7.82
2023-02-25T20:19:36.393Z,7.71
2023-02-25T20:22:06.219Z,7.71
2023-02-25T20:24:34.147Z,7.67
2023-02-25T20:27:01.148Z,7.62
2023-02-25T20:29:28.695Z,7.61
2023-02-25T20:31:58.898Z,7.58
2023-02-25T20:34:27.639Z,7.59
2023-02-25T20:37:06.801Z,7.64
2023-02-25T20:39:39.928Z,7.68
2023-02-25T20:42:12.848Z,7.69
2023-02-25T20:44:40.752Z,7.71
2023-02-25T20:47:13.304Z,7.70
2023-02-25T20:49:40.717Z,7.69
2023-02-25T20:52:07.844Z,7.53
2023-02-25T20:54:34.803Z,7.51
2023-02-25T20:57:02.515Z,7.50
2023-02-25T20:59:29.565Z,7.50
2023-02-25T21:01:57.951Z,7.42
2023-02-25T21:04:24.953Z,7.39
2023-02-25T21:06:51.945Z,7.39
2023-02-25T21:09:18.865Z,7.34
2023-02-25T21:11:45.986Z,7.31
2023-02-25T21:14:12.913Z,7.34
2023-02-25T21:16:39.908Z,7.29
2023-02-25T21:19:07.818Z,7.31
2023-02-25T21:21:37.451Z,7.32
2023-02-25T21:24:15.302Z,7.36
2023-02-25T21:26:43.244Z,7.37
2023-02-25T21:29:11.077Z,7.42
2023-02-25T21:31:38.634Z,7.40
2023-02-25T21:34:06.352Z,7.46
2023-02-25T21:36:34.174Z,7.47
2023-02-25T21:39:01.184Z,7.47
2023-02-25T21:41:28.174Z,7.40
2023-02-25T21:43:55.954Z,7.45
2023-02-25T21:46:23.405Z,7.49
2023-02-25T21:48:53.363Z,7.51
2023-02-25T21:51:22.804Z,7.50
2023-02-25T21:53:54.194Z,7.47
2023-02-25T21:56:21.625Z,7.25
2023-02-25T21:58:49.498Z,7.08
2023-02-25T22:01:21.304Z,7.17
2023-02-25T22:03:48.779Z,7.01
2023-02-25T22:06:16.190Z,6.95
2023-02-25T22:08:45.707Z,6.79
2023-02-25T22:11:18.968Z,6.42
2023-02-25T22:13:46.644Z,6.43
2023-02-25T22:16:15.312Z,6.24
2023-02-25T22:18:42.950Z,5.97
2023-02-25T22:21:17.466Z,5.98
2023-02-25T22:23:45.459Z,5.95
2023-02-25T22:26:15.099Z,5.89
2023-02-25T22:28:43.768Z,5.92
2023-02-25T22:31:12.667Z,5.81
2023-02-25T22:33:40.235Z,5.88
2023-02-25T22:36:08.309Z,5.81
2023-02-25T22:38:38.100Z,5.73
2023-02-25T22:41:06.531Z,5.67
2023-02-25T22:43:33.982Z,5.65
2023-02-25T22:46:15.416Z,5.66
2023-02-25T22:48:44.780Z,5.71
2023-02-25T22:51:12.551Z,5.71
2023-02-25T22:53:40.966Z,5.69
2023-02-25T22:56:10.645Z,5.68
2023-02-25T22:58:40.673Z,5.69
2023-02-25T23:01:09.415Z,5.74
2023-02-25T23:03:36.642Z,5.67
2023-02-25T23:06:03.821Z,5.64
2023-02-25T23:08:31.015Z,5.57
2023-02-25T23:11:18.355Z,5.48
2023-02-25T23:13:50.572Z,5.42
2023-02-25T23:16:27.553Z,5.41
2023-02-25T23:19:00.290Z,5.47
2023-02-25T23:21:28.917Z,5.42
2023-02-25T23:23:58.409Z,5.33
2023-02-25T23:26:28.803Z,5.23
2023-02-25T23:29:04.140Z,5.14
2023-02-25T23:31:33.987Z,5.09
2023-02-25T23:34:04.055Z,5.05
2023-02-25T23:36:31.394Z,4.99
2023-02-25T23:39:02.169Z,4.98
2023-02-25T23:41:30.172Z,4.97
2023-02-25T23:44:00.745Z,4.94
2023-02-25T23:46:30.492Z,4.92
2023-02-25T23:49:03.346Z,4.94
2023-02-25T23:51:30.527Z,4.99
2023-02-25T23:54:00.233Z,5.05
2023-02-25T23:56:28.045Z,5.11
2023-02-25T23:58:55.975Z,5.13
